Time;durP1;ratioP1;P1;durP2;ratioP2;P2;SDS_P1;SDS_P2;PMS_P1;PMS_P2;Temp;Humidity;BMP_temperature;BMP_pressure;BME280_temperature;BME280_humidity;BME280_pressure;Samples;Min_cycle;Max_cycle;Signal;HPM_P1;HPM_P2
2023/01/11 00:00:24;;;;;;;;;;;12.40;99.90;;;;;;7353730;19;108278;-94
2023/01/11 00:02:58;;;;;;;;;;;12.40;99.90;;;;;;7352957;19;111416;-95
2023/01/11 00:05:25;;;;;;;;;;;12.40;99.90;;;;;;7359249;19;108369;-93
2023/01/11 00:07:52;;;;;;;;;;;12.40;99.90;;;;;;7356855;19;110654;-93
2023/01/11 00:10:19;;;;;;;;;;;12.50;99.90;;;;;;7356817;19;108663;-95
2023/01/11 00:12:47;;;;;;;;;;;12.50;99.90;;;;;;7353058;19;110068;-95
2023/01/11 00:15:14;;;;;;;;;;;12.50;99.90;;;;;;7354917;19;113536;-93
2023/01/11 00:17:41;;;;;;;;;;;12.50;99.90;;;;;;7353727;19;108375;-94
2023/01/11 00:20:09;;;;;;;;;;;12.50;99.90;;;;;;7351922;19;110686;-93
2023/01/11 00:22:36;;;;;;;;;;;12.50;99.90;;;;;;7349695;19;111945;-93
2023/01/11 00:25:03;;;;;;;;;;;12.50;99.90;;;;;;7350876;19;108793;-94
2023/01/11 00:27:31;;;;;;;;;;;12.50;99.90;;;;;;7354895;19;109767;-95
2023/01/11 00:29:58;;;;;;;;;;;12.50;99.90;;;;;;7351826;19;108575;-94
2023/01/11 00:32:26;;;;;;;;;;;12.50;99.90;;;;;;7350056;19;108627;-92
2023/01/11 00:34:53;;;;;;;;;;;12.50;99.90;;;;;;7347624;19;111183;-94
2023/01/11 00:37:20;;;;;;;;;;;12.60;99.90;;;;;;7348075;19;108498;-94
2023/01/11 00:39:47;;;;;;;;;;;12.50;99.90;;;;;;7350691;19;108863;-94
2023/01/11 00:47:59;;;;;;;;;;;12.60;99.90;;;;;;7349989;19;108369;-93
2023/01/11 00:50:28;;;;;;;;;;;12.60;99.90;;;;;;7351775;19;110777;-93
2023/01/11 00:52:55;;;;;;;;;;;12.50;99.90;;;;;;7347215;19;112280;-94
2023/01/11 00:55:22;;;;;;;;;;;12.60;99.90;;;;;;7343778;19;110560;-95
2023/01/11 00:57:50;;;;;;;;;;;12.60;99.90;;;;;;7348337;19;108802;-93
2023/01/11 01:00:18;;;;;;;;;;;12.70;99.90;;;;;;7347065;19;108479;-94
2023/01/11 01:02:45;;;;;;;;;;;12.60;99.90;;;;;;7347078;19;110833;-94
2023/01/11 01:05:12;;;;;;;;;;;12.70;99.90;;;;;;7346221;19;109826;-94
2023/01/11 01:07:39;;;;;;;;;;;12.70;99.90;;;;;;7348466;19;108516;-94
2023/01/11 01:10:07;;;;;;;;;;;12.60;99.90;;;;;;7352539;19;111804;-94
2023/01/11 01:15:19;;;;;;;;;;;12.70;99.90;;;;;;7347440;19;110724;-93
2023/01/11 01:17:47;;;;;;;;;;;12.70;99.90;;;;;;7345897;19;108388;-94
2023/01/11 01:20:14;;;;;;;;;;;12.70;99.90;;;;;;7344787;19;112049;-92
2023/01/11 01:22:41;;;;;;;;;;;12.70;99.90;;;;;;7345811;19;110219;-94
2023/01/11 01:25:08;;;;;;;;;;;12.70;99.90;;;;;;7348654;19;108872;-94
2023/01/11 01:27:35;;;;;;;;;;;12.70;99.90;;;;;;7346026;19;108582;-96
2023/01/11 01:30:04;;;;;;;;;;;12.70;99.90;;;;;;7345847;19;111924;-94
2023/01/11 01:32:31;;;;;;;;;;;12.70;99.90;;;;;;7352376;19;108382;-94
2023/01/11 01:34:57;;;;;;;;;;;12.70;99.90;;;;;;7345956;19;111891;-93
2023/01/11 01:37:24;;;;;;;;;;;12.80;99.90;;;;;;7347539;19;108034;-95
2023/01/11 01:39:51;;;;;;;;;;;12.80;99.90;;;;;;7346286;19;110340;-94
2023/01/11 01:42:19;;;;;;;;;;;12.80;99.90;;;;;;7347092;19;112667;-94
2023/01/11 01:44:46;;;;;;;;;;;12.80;99.90;;;;;;7348074;19;108114;-94
2023/01/11 01:47:13;;;;;;;;;;;12.80;99.90;;;;;;7346686;19;111565;-94
2023/01/11 01:49:41;;;;;;;;;;;12.80;99.90;;;;;;7347030;19;110093;-93
2023/01/11 01:52:09;;;;;;;;;;;12.90;99.90;;;;;;7345253;19;108592;-95
2023/01/11 01:54:38;;;;;;;;;;;12.90;99.90;;;;;;7350255;19;108373;-94
2023/01/11 01:57:08;;;;;;;;;;;12.90;99.90;;;;;;7346770;19;107987;-94
2023/01/11 01:59:36;;;;;;;;;;;12.90;99.90;;;;;;7346165;19;108039;-94
2023/01/11 02:02:03;;;;;;;;;;;12.90;99.90;;;;;;7346154;19;108363;-94
2023/01/11 02:04:32;;;;;;;;;;;12.90;99.90;;;;;;7343567;19;108955;-95
2023/01/11 02:07:04;;;;;;;;;;;12.90;99.90;;;;;;7347449;19;112034;-94
2023/01/11 02:09:35;;;;;;;;;;;12.90;99.90;;;;;;7353728;19;108230;-95
2023/01/11 02:12:03;;;;;;;;;;;13.00;99.90;;;;;;7352514;19;108474;-93
2023/01/11 02:14:30;;;;;;;;;;;13.00;99.90;;;;;;7352036;19;111017;-94
2023/01/11 02:16:57;;;;;;;;;;;13.00;99.90;;;;;;7358138;19;110318;-94
2023/01/11 02:19:27;;;;;;;;;;;13.00;99.90;;;;;;7351857;19;110485;-93
2023/01/11 02:22:13;;;;;;;;;;;13.00;99.90;;;;;;7351950;19;109915;-94
2023/01/11 02:24:59;;;;;;;;;;;13.00;99.90;;;;;;7353555;19;108397;-94
2023/01/11 02:27:41;;;;;;;;;;;13.10;99.90;;;;;;7350045;19;111266;-93
2023/01/11 02:30:08;;;;;;;;;;;13.00;99.90;;;;;;7351732;19;111611;-94
2023/01/11 02:32:54;;;;;;;;;;;13.10;99.90;;;;;;7354080;19;108574;-95
2023/01/11 02:35:31;;;;;;;;;;;13.20;99.90;;;;;;7352092;19;111076;-95
2023/01/11 02:38:00;;;;;;;;;;;13.10;99.90;;;;;;7354171;19;111866;-94
2023/01/11 02:40:33;;;;;;;;;;;13.10;99.90;;;;;;7355541;19;108716;-95
2023/01/11 02:46:05;;;;;;;;;;;13.10;99.90;;;;;;7356582;19;108498;-95
2023/01/11 02:48:37;;;;;;;;;;;13.10;99.90;;;;;;7352675;19;107959;-94
2023/01/11 02:51:07;;;;;;;;;;;13.10;99.90;;;;;;7351229;19;112209;-94
2023/01/11 02:53:42;;;;;;;;;;;13.10;99.90;;;;;;7352178;19;112647;-95
2023/01/11 02:56:15;;;;;;;;;;;13.10;99.90;;;;;;7354132;19;109718;-95
2023/01/11 02:58:44;;;;;;;;;;;13.10;99.90;;;;;;7354076;19;110160;-96
2023/01/11 03:01:11;;;;;;;;;;;13.10;99.90;;;;;;7353977;19;108160;-95
2023/01/11 03:03:38;;;;;;;;;;;13.10;99.90;;;;;;7359084;19;108174;-95
2023/01/11 03:06:16;;;;;;;;;;;13.20;99.90;;;;;;7353007;19;108102;-96
2023/01/11 03:08:55;;;;;;;;;;;13.10;99.90;;;;;;7356369;19;109210;-95
2023/01/11 03:14:39;;;;;;;;;;;13.20;99.90;;;;;;7353374;19;108212;-94
2023/01/11 03:17:16;;;;;;;;;;;13.20;99.90;;;;;;7351770;19;109540;-94
2023/01/11 03:19:51;;;;;;;;;;;13.20;99.90;;;;;;7353713;19;113229;-95
2023/01/11 03:22:18;;;;;;;;;;;13.20;99.90;;;;;;7349297;19;108481;-93
2023/01/11 03:24:47;;;;;;;;;;;13.20;99.90;;;;;;7355720;19;110204;-96
2023/01/11 03:27:37;;;;;;;;;;;13.20;99.90;;;;;;7350622;19;108379;-94
2023/01/11 03:30:10;;;;;;;;;;;13.20;99.90;;;;;;7356790;19;110850;-94
2023/01/11 03:32:37;;;;;;;;;;;13.30;99.90;;;;;;7351686;19;108227;-95
2023/01/11 03:35:11;;;;;;;;;;;13.20;99.90;;;;;;7352251;19;107942;-94
2023/01/11 03:37:48;;;;;;;;;;;13.20;99.90;;;;;;7349930;19;109373;-95
2023/01/11 03:40:19;;;;;;;;;;;13.20;99.90;;;;;;7361145;19;108264;-95
2023/01/11 03:45:34;;;;;;;;;;;13.20;99.90;;;;;;7355264;19;110488;-93
2023/01/11 03:48:03;;;;;;;;;;;13.20;99.90;;;;;;7357101;19;111516;-93
2023/01/11 03:50:32;;;;;;;;;;;13.30;99.90;;;;;;7354023;19;111822;-96
2023/01/11 03:53:00;;;;;;;;;;;13.20;99.90;;;;;;7351887;19;110374;-94
2023/01/11 03:55:29;;;;;;;;;;;13.30;99.90;;;;;;7350222;19;107958;-95
2023/01/11 03:57:56;;;;;;;;;;;13.30;99.90;;;;;;7349065;19;108924;-94
2023/01/11 04:00:24;;;;;;;;;;;13.30;99.90;;;;;;7353157;19;112036;-90
2023/01/11 04:02:52;;;;;;;;;;;13.30;99.90;;;;;;7340793;19;109669;-90
2023/01/11 04:05:19;;;;;;;;;;;13.20;99.90;;;;;;7340693;19;110469;-91
2023/01/11 04:07:46;;;;;;;;;;;13.20;99.90;;;;;;7343094;19;109806;-89
2023/01/11 04:10:13;;;;;;;;;;;13.20;99.90;;;;;;7346199;19;108763;-90
2023/01/11 04:12:40;;;;;;;;;;;13.10;99.90;;;;;;7342571;19;110410;-89
2023/01/11 04:15:08;;;;;;;;;;;13.10;99.90;;;;;;7340651;19;108624;-90
2023/01/11 04:17:35;;;;;;;;;;;13.10;99.90;;;;;;7340646;19;112366;-90
2023/01/11 04:20:02;;;;;;;;;;;13.10;99.90;;;;;;7342446;19;111643;-90
2023/01/11 04:22:29;;;;;;;;;;;13.10;99.90;;;;;;7342196;19;109187;-89
2023/01/11 04:24:56;;;;;;;;;;;13.10;99.90;;;;;;7344385;19;112194;-90
2023/01/11 04:27:22;;;;;;;;;;;13.10;99.90;;;;;;7343080;19;110770;-90
2023/01/11 04:29:49;;;;;;;;;;;13.10;99.90;;;;;;7342498;19;109189;-90
2023/01/11 04:32:16;;;;;;;;;;;13.10;99.90;;;;;;7349356;19;110113;-91
2023/01/11 04:34:44;;;;;;;;;;;13.10;99.90;;;;;;7344250;19;109164;-90
2023/01/11 04:37:10;;;;;;;;;;;13.10;99.90;;;;;;7343053;19;109985;-90
2023/01/11 04:39:37;;;;;;;;;;;13.10;99.90;;;;;;7341313;19;110138;-91
2023/01/11 04:42:20;;;;;;;;;;;13.10;99.90;;;;;;7344427;19;108842;-89
2023/01/11 04:44:47;;;;;;;;;;;13.10;99.90;;;;;;7344448;19;111814;-90
2023/01/11 04:47:15;;;;;;;;;;;13.10;99.90;;;;;;7342266;19;110362;-89
2023/01/11 04:49:42;;;;;;;;;;;13.10;99.90;;;;;;7342322;19;109156;-89
2023/01/11 04:52:10;;;;;;;;;;;13.10;99.90;;;;;;7343270;19;109401;-91
2023/01/11 04:54:37;;;;;;;;;;;13.10;99.90;;;;;;7345821;19;109206;-89
2023/01/11 04:57:05;;;;;;;;;;;13.10;99.90;;;;;;7342723;19;109117;-91
2023/01/11 04:59:34;;;;;;;;;;;13.10;99.90;;;;;;7340333;19;110415;-89
2023/01/11 05:02:01;;;;;;;;;;;13.00;99.90;;;;;;7343264;19;108852;-89
2023/01/11 05:04:28;;;;;;;;;;;13.00;99.90;;;;;;7340979;19;112157;-90
2023/01/11 05:06:55;;;;;;;;;;;13.00;99.90;;;;;;7343439;19;110675;-90
2023/01/11 05:09:22;;;;;;;;;;;13.00;99.90;;;;;;7341650;19;108433;-90
2023/01/11 05:11:49;;;;;;;;;;;13.10;99.90;;;;;;7341727;19;109277;-90
2023/01/11 05:14:18;;;;;;;;;;;13.00;99.90;;;;;;7342402;19;110033;-90
2023/01/11 05:16:45;;;;;;;;;;;13.00;99.90;;;;;;7347053;19;108625;-91
2023/01/11 05:19:12;;;;;;;;;;;13.00;99.90;;;;;;7342549;19;110655;-90
2023/01/11 05:21:39;;;;;;;;;;;13.10;99.90;;;;;;7342334;19;108314;-89
2023/01/11 05:24:11;;;;;;;;;;;13.00;99.90;;;;;;7341768;19;109149;-91
2023/01/11 05:26:39;;;;;;;;;;;13.00;99.90;;;;;;7338866;19;110161;-90
2023/01/11 05:29:07;;;;;;;;;;;13.00;99.90;;;;;;7342022;19;108857;-90
2023/01/11 05:31:35;;;;;;;;;;;13.10;99.90;;;;;;7338593;19;111751;-90
2023/01/11 05:34:02;;;;;;;;;;;13.00;99.90;;;;;;7339783;19;112347;-89
2023/01/11 05:36:29;;;;;;;;;;;13.00;99.90;;;;;;7344860;19;109829;-90
2023/01/11 05:38:56;;;;;;;;;;;13.10;99.90;;;;;;7340598;19;113289;-89
2023/01/11 05:41:24;;;;;;;;;;;13.00;99.90;;;;;;7338541;19;108523;-90
2023/01/11 05:46:38;;;;;;;;;;;13.00;99.90;;;;;;7347159;19;110155;-90
2023/01/11 05:49:05;;;;;;;;;;;13.00;99.90;;;;;;7350724;19;108802;-90
2023/01/11 05:51:33;;;;;;;;;;;13.00;99.90;;;;;;7347897;19;108662;-90
2023/01/11 05:54:01;;;;;;;;;;;13.00;99.90;;;;;;7347032;19;110682;-90
2023/01/11 05:56:28;;;;;;;;;;;13.00;99.90;;;;;;7348368;19;109037;-89
2023/01/11 05:58:55;;;;;;;;;;;13.00;99.90;;;;;;7349870;19;112260;-89
2023/01/11 06:01:23;;;;;;;;;;;13.00;99.90;;;;;;7347440;19;108846;-90
2023/01/11 06:03:50;;;;;;;;;;;12.90;99.90;;;;;;7348693;19;109631;-91
2023/01/11 06:06:17;;;;;;;;;;;12.90;99.90;;;;;;7345353;19;109964;-90
2023/01/11 06:08:44;;;;;;;;;;;12.90;99.90;;;;;;7346372;19;109061;-91
2023/01/11 06:11:11;;;;;;;;;;;12.90;99.90;;;;;;7348769;19;109405;-89
2023/01/11 06:13:38;;;;;;;;;;;12.90;99.90;;;;;;7345160;19;113156;-91
2023/01/11 06:16:06;;;;;;;;;;;12.90;99.90;;;;;;7348087;19;108563;-91
2023/01/11 06:18:34;;;;;;;;;;;12.80;99.90;;;;;;7345582;19;110940;-88
2023/01/11 06:21:02;;;;;;;;;;;12.80;99.90;;;;;;7346297;19;110344;-89
2023/01/11 06:23:30;;;;;;;;;;;12.90;99.90;;;;;;7344029;19;109511;-89
2023/01/11 06:25:59;;;;;;;;;;;12.80;99.90;;;;;;7342950;19;111061;-89
2023/01/11 06:28:27;;;;;;;;;;;12.80;99.90;;;;;;7343880;19;108437;-88
2023/01/11 06:30:54;;;;;;;;;;;12.80;99.90;;;;;;7345712;19;108446;-90
2023/01/11 06:33:22;;;;;;;;;;;12.80;99.90;;;;;;7344022;19;109735;-90
2023/01/11 06:35:54;;;;;;;;;;;12.70;99.90;;;;;;7344028;19;108940;-89
2023/01/11 06:38:24;;;;;;;;;;;12.80;99.90;;;;;;7342295;19;112341;-88
2023/01/11 06:40:52;;;;;;;;;;;12.70;99.90;;;;;;7342593;19;113258;-90
2023/01/11 06:43:20;;;;;;;;;;;12.80;99.90;;;;;;7348868;19;108686;-90
2023/01/11 06:45:47;;;;;;;;;;;12.70;99.90;;;;;;7346997;19;113005;-91
2023/01/11 06:48:15;;;;;;;;;;;12.70;99.90;;;;;;7344489;19;108737;-90
2023/01/11 06:50:42;;;;;;;;;;;12.70;99.90;;;;;;7345475;19;111663;-90
2023/01/11 06:53:09;;;;;;;;;;;12.60;99.90;;;;;;7342771;19;110572;-89
2023/01/11 06:55:36;;;;;;;;;;;12.70;99.90;;;;;;7342524;19;109041;-91
2023/01/11 06:58:03;;;;;;;;;;;12.60;99.90;;;;;;7343714;19;111324;-88
2023/01/11 07:00:32;;;;;;;;;;;12.60;99.90;;;;;;7340535;19;113483;-89
2023/01/11 07:03:03;;;;;;;;;;;12.60;99.90;;;;;;7344007;19;111398;-89
2023/01/11 07:05:31;;;;;;;;;;;12.60;99.90;;;;;;7346755;19;112376;-90
2023/01/11 07:07:58;;;;;;;;;;;12.60;99.90;;;;;;7344138;19;108561;-90
2023/01/11 07:10:25;;;;;;;;;;;12.60;99.90;;;;;;7342706;19;109802;-89
2023/01/11 07:12:52;;;;;;;;;;;12.60;99.90;;;;;;7343901;19;110358;-90
2023/01/11 07:15:19;;;;;;;;;;;12.60;99.90;;;;;;7341933;19;109044;-89
2023/01/11 07:17:48;;;;;;;;;;;12.60;99.90;;;;;;7343034;19;111851;-88
2023/01/11 07:20:15;;;;;;;;;;;12.50;99.90;;;;;;7343380;19;109286;-90
2023/01/11 07:22:42;;;;;;;;;;;12.50;99.90;;;;;;7344228;19;108380;-90
2023/01/11 07:25:09;;;;;;;;;;;12.50;99.90;;;;;;7349674;19;108963;-90
2023/01/11 07:27:36;;;;;;;;;;;12.50;99.90;;;;;;7344687;19;108443;-90
2023/01/11 07:30:03;;;;;;;;;;;12.50;99.90;;;;;;7344471;19;108483;-89
2023/01/11 07:32:30;;;;;;;;;;;12.40;99.90;;;;;;7343942;19;110729;-89
2023/01/11 07:34:57;;;;;;;;;;;12.40;99.90;;;;;;7344129;19;108383;-90
2023/01/11 07:37:24;;;;;;;;;;;12.40;99.90;;;;;;7344255;19;111468;-88
2023/01/11 07:39:55;;;;;;;;;;;12.40;99.90;;;;;;7343531;19;110301;-89
2023/01/11 07:45:07;;;;;;;;;;;12.40;99.90;;;;;;7343750;19;111677;-89
2023/01/11 07:47:34;;;;;;;;;;;12.30;99.90;;;;;;7347710;19;112400;-88
2023/01/11 07:50:01;;;;;;;;;;;12.30;99.90;;;;;;7342991;19;112191;-88
2023/01/11 07:52:28;;;;;;;;;;;12.30;99.90;;;;;;7341962;19;110399;-89
2023/01/11 07:55:01;;;;;;;;;;;12.20;99.90;;;;;;7344917;19;108506;-89
2023/01/11 07:57:29;;;;;;;;;;;12.20;99.90;;;;;;7343789;19;111851;-89
2023/01/11 07:59:56;;;;;;;;;;;12.20;99.90;;;;;;7341204;19;110468;-90
2023/01/11 08:02:23;;;;;;;;;;;12.20;99.90;;;;;;7337984;19;108395;-87
2023/01/11 08:04:50;;;;;;;;;;;12.20;99.90;;;;;;7339732;19;109201;-90
2023/01/11 08:07:17;;;;;;;;;;;12.10;99.90;;;;;;7339567;19;111895;-88
2023/01/11 08:09:44;;;;;;;;;;;12.10;99.90;;;;;;7346595;19;110431;-90
2023/01/11 08:14:56;;;;;;;;;;;12.10;99.90;;;;;;7344357;19;108572;-91
2023/01/11 08:17:23;;;;;;;;;;;12.00;99.90;;;;;;7340011;19;109429;-89
2023/01/11 08:19:50;;;;;;;;;;;12.00;99.90;;;;;;7340776;19;110196;-89
2023/01/11 08:22:17;;;;;;;;;;;12.00;99.90;;;;;;7340826;19;108705;-89
2023/01/11 08:24:44;;;;;;;;;;;11.90;99.90;;;;;;7341819;19;110524;-90
2023/01/11 08:27:11;;;;;;;;;;;11.90;99.90;;;;;;7342419;19;113448;-89
2023/01/11 08:29:42;;;;;;;;;;;11.90;99.90;;;;;;7343372;19;108886;-88
2023/01/11 08:32:10;;;;;;;;;;;11.90;99.90;;;;;;7345803;19;112276;-89
2023/01/11 08:34:37;;;;;;;;;;;11.80;99.90;;;;;;7341216;19;108720;-89
2023/01/11 08:37:04;;;;;;;;;;;11.80;99.90;;;;;;7344988;19;109197;-89
2023/01/11 08:39:31;;;;;;;;;;;11.80;99.90;;;;;;7340025;19;109281;-89
2023/01/11 08:41:58;;;;;;;;;;;11.70;99.90;;;;;;7340890;19;108486;-88
2023/01/11 08:44:25;;;;;;;;;;;11.70;99.90;;;;;;7340275;19;112486;-88
2023/01/11 08:47:00;;;;;;;;;;;11.60;99.90;;;;;;7342020;19;109366;-89
2023/01/11 08:49:29;;;;;;;;;;;11.60;99.90;;;;;;7340658;19;108833;-89
2023/01/11 08:51:56;;;;;;;;;;;11.60;99.90;;;;;;7340585;19;109358;-88
2023/01/11 08:54:23;;;;;;;;;;;11.50;99.90;;;;;;7345982;19;110079;-88
2023/01/11 08:56:50;;;;;;;;;;;11.50;99.90;;;;;;7340759;19;109383;-89
2023/01/11 08:59:18;;;;;;;;;;;11.40;99.90;;;;;;7341789;19;109964;-88
2023/01/11 09:01:45;;;;;;;;;;;11.40;99.90;;;;;;7340802;19;108421;-88
2023/01/11 09:04:13;;;;;;;;;;;11.40;99.90;;;;;;7340331;19;109208;-88
2023/01/11 09:06:51;;;;;;;;;;;11.40;99.90;;;;;;7339329;19;109632;-89
2023/01/11 09:09:19;;;;;;;;;;;11.30;99.90;;;;;;7339612;19;109112;-90
2023/01/11 09:11:59;;;;;;;;;;;11.30;99.90;;;;;;7341344;19;109219;-88
2023/01/11 09:14:27;;;;;;;;;;;11.20;99.90;;;;;;7340908;19;110070;-89
2023/01/11 09:16:54;;;;;;;;;;;11.20;99.90;;;;;;7351665;19;109982;-89
2023/01/11 09:19:21;;;;;;;;;;;11.20;99.90;;;;;;7345115;19;113093;-89
2023/01/11 09:21:50;;;;;;;;;;;11.10;99.90;;;;;;7348492;19;108736;-88
2023/01/11 09:24:16;;;;;;;;;;;11.10;99.90;;;;;;7348675;19;111109;-88
2023/01/11 09:26:43;;;;;;;;;;;11.10;99.90;;;;;;7347577;19;110781;-89
2023/01/11 09:29:11;;;;;;;;;;;11.10;99.90;;;;;;7346937;19;108408;-90
2023/01/11 09:31:38;;;;;;;;;;;11.10;99.90;;;;;;7346405;19;108856;-89
2023/01/11 09:34:05;;;;;;;;;;;11.10;99.90;;;;;;7347700;19;110595;-89
2023/01/11 09:36:34;;;;;;;;;;;11.00;99.90;;;;;;7350228;19;108681;-88
2023/01/11 09:39:06;;;;;;;;;;;11.10;99.90;;;;;;7346901;19;109988;-88
2023/01/11 09:41:49;;;;;;;;;;;11.10;99.90;;;;;;7345111;19;109289;-88
2023/01/11 09:44:20;;;;;;;;;;;11.10;99.90;;;;;;7347345;19;109248;-89
2023/01/11 09:46:50;;;;;;;;;;;11.20;99.90;;;;;;7346327;19;110805;-89
2023/01/11 09:49:19;;;;;;;;;;;11.20;99.90;;;;;;7345692;19;108677;-88
2023/01/11 09:51:46;;;;;;;;;;;11.20;99.90;;;;;;7347553;19;112966;-88
2023/01/11 09:54:16;;;;;;;;;;;11.30;99.90;;;;;;7345255;19;112676;-89
2023/01/11 09:56:52;;;;;;;;;;;11.30;99.90;;;;;;7348295;19;108348;-88
2023/01/11 09:59:45;;;;;;;;;;;11.40;99.90;;;;;;7351522;19;109971;-88
2023/01/11 10:02:37;;;;;;;;;;;11.40;99.90;;;;;;7344424;19;108532;-89
2023/01/11 10:05:22;;;;;;;;;;;11.40;99.90;;;;;;7346076;19;109678;-89
2023/01/11 10:07:57;;;;;;;;;;;11.50;99.90;;;;;;7348043;19;111972;-89
2023/01/11 10:10:52;;;;;;;;;;;11.50;99.90;;;;;;7346044;19;113390;-88
2023/01/11 10:13:52;;;;;;;;;;;11.60;99.90;;;;;;7342057;19;110017;-89
2023/01/11 10:16:34;;;;;;;;;;;11.50;99.90;;;;;;7344025;19;111746;-89
2023/01/11 10:19:44;;;;;;;;;;;11.60;99.90;;;;;;7346972;19;109462;-89
2023/01/11 10:22:31;;;;;;;;;;;11.60;99.90;;;;;;7345610;19;111971;-90
2023/01/11 10:25:15;;;;;;;;;;;11.70;99.90;;;;;;7352249;19;113314;-90
2023/01/11 10:27:55;;;;;;;;;;;11.70;99.90;;;;;;7344015;19;112315;-90
2023/01/11 10:35:56;;;;;;;;;;;11.80;99.90;;;;;;7346518;19;111659;-91
2023/01/11 10:38:50;;;;;;;;;;;11.80;99.90;;;;;;7345697;19;109498;-90
2023/01/11 10:41:24;;;;;;;;;;;11.80;99.90;;;;;;7346328;19;108759;-88
2023/01/11 10:43:58;;;;;;;;;;;11.80;99.90;;;;;;7347281;19;109328;-89
2023/01/11 10:46:26;;;;;;;;;;;11.90;99.90;;;;;;7344024;19;109493;-90
2023/01/11 10:48:59;;;;;;;;;;;11.90;99.90;;;;;;7352784;19;108772;-89
2023/01/11 10:51:28;;;;;;;;;;;12.00;99.90;;;;;;7345175;19;112811;-91
2023/01/11 10:54:21;;;;;;;;;;;12.00;99.90;;;;;;7346394;19;108527;-89
2023/01/11 10:57:07;;;;;;;;;;;12.00;99.90;;;;;;7343693;19;112171;-88
2023/01/11 10:59:55;;;;;;;;;;;12.00;99.90;;;;;;7342601;19;110265;-88
2023/01/11 11:02:31;;;;;;;;;;;12.00;99.90;;;;;;7343543;19;108755;-90
2023/01/11 11:04:58;;;;;;;;;;;12.10;99.90;;;;;;7344611;19;111729;-91
2023/01/11 11:07:33;;;;;;;;;;;12.00;99.90;;;;;;7341698;19;112183;-88
2023/01/11 11:10:20;;;;;;;;;;;12.10;99.90;;;;;;7345585;19;108535;-87
2023/01/11 11:12:53;;;;;;;;;;;12.10;99.90;;;;;;7344542;19;112823;-89
2023/01/11 11:15:24;;;;;;;;;;;12.20;99.90;;;;;;7342305;19;109370;-89
2023/01/11 11:17:51;;;;;;;;;;;12.20;99.90;;;;;;7340689;19;110760;-88
2023/01/11 11:20:20;;;;;;;;;;;12.30;99.90;;;;;;7341115;19;112683;-89
2023/01/11 11:22:51;;;;;;;;;;;12.30;99.90;;;;;;7341602;19;108574;-91
2023/01/11 11:25:26;;;;;;;;;;;12.40;99.90;;;;;;7340158;19;112119;-91
2023/01/11 11:28:13;;;;;;;;;;;12.40;99.90;;;;;;7342397;19;113430;-90
2023/01/11 11:30:41;;;;;;;;;;;12.40;99.90;;;;;;7342096;19;108438;-89
2023/01/11 11:33:15;;;;;;;;;;;12.40;99.90;;;;;;7342475;19;108790;-91
2023/01/11 11:35:45;;;;;;;;;;;12.50;99.90;;;;;;7345313;19;110535;-90
2023/01/11 11:38:22;;;;;;;;;;;12.60;99.90;;;;;;7340363;19;109405;-90
2023/01/11 11:41:09;;;;;;;;;;;12.60;99.90;;;;;;7344294;19;109295;-90
2023/01/11 11:43:37;;;;;;;;;;;12.70;99.90;;;;;;7343917;19;108293;-91
2023/01/11 11:46:13;;;;;;;;;;;12.70;99.90;;;;;;7344888;19;108850;-91
2023/01/11 11:49:08;;;;;;;;;;;12.80;99.90;;;;;;7349013;19;110966;-92
2023/01/11 11:51:35;;;;;;;;;;;12.80;99.90;;;;;;7346532;19;108487;-92
2023/01/11 11:54:03;;;;;;;;;;;12.80;99.90;;;;;;7348469;19;108613;-91
2023/01/11 11:56:34;;;;;;;;;;;12.70;99.90;;;;;;7357580;19;109333;-91
2023/01/11 11:59:06;;;;;;;;;;;12.80;99.90;;;;;;7361337;19;110397;-95
2023/01/11 12:01:38;;;;;;;;;;;12.80;99.90;;;;;;7376184;19;108486;-95
2023/01/11 12:04:17;;;;;;;;;;;12.80;99.90;;;;;;7372266;19;108028;-93
2023/01/11 12:07:03;;;;;;;;;;;12.70;99.90;;;;;;7353438;19;108550;-91
2023/01/11 12:09:31;;;;;;;;;;;12.70;99.90;;;;;;7350118;19;113066;-88
2023/01/11 12:11:59;;;;;;;;;;;12.70;99.90;;;;;;7344645;19;108961;-88
2023/01/11 12:14:27;;;;;;;;;;;12.80;99.90;;;;;;7344510;19;112070;-90
2023/01/11 12:16:56;;;;;;;;;;;12.80;99.90;;;;;;7346399;19;109610;-89
2023/01/11 12:19:25;;;;;;;;;;;12.80;99.90;;;;;;7359106;19;108719;-90
2023/01/11 12:22:07;;;;;;;;;;;12.90;99.90;;;;;;7349107;19;113351;-92
2023/01/11 12:24:34;;;;;;;;;;;12.90;99.90;;;;;;7348827;19;108377;-89
2023/01/11 12:27:20;;;;;;;;;;;13.00;99.90;;;;;;7347712;19;111556;-89
2023/01/11 12:30:13;;;;;;;;;;;12.90;99.90;;;;;;7350697;19;111684;-90
2023/01/11 12:32:49;;;;;;;;;;;12.90;99.90;;;;;;7348016;19;108147;-89
2023/01/11 12:35:19;;;;;;;;;;;12.90;99.90;;;;;;7346310;19;108577;-89
2023/01/11 12:38:05;;;;;;;;;;;12.90;99.90;;;;;;7346855;19;111753;-89
2023/01/11 12:40:39;;;;;;;;;;;12.80;99.90;;;;;;7345391;19;108467;-89
2023/01/11 12:43:29;;;;;;;;;;;12.90;99.90;;;;;;7352077;19;109452;-88
2023/01/11 12:46:16;;;;;;;;;;;12.90;99.90;;;;;;7345845;19;108929;-88
2023/01/11 12:49:13;;;;;;;;;;;12.90;99.90;;;;;;7344239;19;110597;-89
2023/01/11 12:51:42;;;;;;;;;;;12.80;99.90;;;;;;7340879;19;111853;-89
2023/01/11 12:54:18;;;;;;;;;;;12.80;99.90;;;;;;7342678;19;108476;-90
2023/01/11 12:56:57;;;;;;;;;;;12.80;99.90;;;;;;7345492;19;108664;-90
2023/01/11 12:59:27;;;;;;;;;;;12.80;99.90;;;;;;7341879;19;110425;-91
2023/01/11 13:01:54;;;;;;;;;;;12.80;99.90;;;;;;7345372;19;108792;-89
2023/01/11 13:04:40;;;;;;;;;;;12.70;99.90;;;;;;7343214;19;108858;-90
2023/01/11 13:07:10;;;;;;;;;;;12.70;99.90;;;;;;7344855;19;114050;-87
2023/01/11 13:09:50;;;;;;;;;;;12.70;99.90;;;;;;7342967;19;109169;-89
2023/01/11 13:12:26;;;;;;;;;;;12.60;99.90;;;;;;7339619;19;112870;-91
2023/01/11 13:15:01;;;;;;;;;;;12.60;99.90;;;;;;7342340;19;108863;-91
2023/01/11 13:17:47;;;;;;;;;;;12.60;99.90;;;;;;7342986;19;109237;-91
2023/01/11 13:20:14;;;;;;;;;;;12.60;99.90;;;;;;7344070;19;109193;-91
2023/01/11 13:22:44;;;;;;;;;;;12.70;99.90;;;;;;7345933;19;108983;-90
2023/01/11 13:25:31;;;;;;;;;;;12.70;99.90;;;;;;7343561;19;110282;-90
2023/01/11 13:27:59;;;;;;;;;;;12.70;99.90;;;;;;7342373;19;109511;-89
2023/01/11 13:30:27;;;;;;;;;;;12.70;99.90;;;;;;7345300;19;109181;-91
2023/01/11 13:33:01;;;;;;;;;;;12.60;99.90;;;;;;7342144;19;110348;-92
2023/01/11 13:35:50;;;;;;;;;;;12.60;99.90;;;;;;7345375;19;108283;-91
2023/01/11 13:38:31;;;;;;;;;;;12.60;99.90;;;;;;7343739;19;111841;-92
2023/01/11 13:41:11;;;;;;;;;;;12.60;99.90;;;;;;7344050;19;110176;-91
2023/01/11 13:43:41;;;;;;;;;;;12.70;99.90;;;;;;7345755;19;108250;-90
2023/01/11 13:46:15;;;;;;;;;;;12.60;99.90;;;;;;7347938;19;110963;-90
2023/01/11 13:48:51;;;;;;;;;;;12.60;99.90;;;;;;7346167;19;110174;-90
2023/01/11 13:51:33;;;;;;;;;;;12.50;99.90;;;;;;7343134;19;108796;-91
2023/01/11 13:54:03;;;;;;;;;;;12.60;99.90;;;;;;7349281;19;108495;-89
2023/01/11 13:56:32;;;;;;;;;;;12.60;99.90;;;;;;7345069;19;108296;-90
2023/01/11 13:59:18;;;;;;;;;;;12.70;99.90;;;;;;7343762;19;112469;-87
2023/01/11 14:01:45;;;;;;;;;;;12.70;99.90;;;;;;7342124;19;110336;-88
2023/01/11 14:04:16;;;;;;;;;;;12.80;99.90;;;;;;7348983;19;109670;-88
2023/01/11 14:06:58;;;;;;;;;;;12.80;99.90;;;;;;7345578;19;109365;-89
2023/01/11 14:09:44;;;;;;;;;;;12.80;99.90;;;;;;7342469;19;110343;-88
2023/01/11 14:12:10;;;;;;;;;;;12.80;99.90;;;;;;7342849;19;108545;-88
2023/01/11 14:15:07;;;;;;;;;;;12.80;99.90;;;;;;7341174;19;108664;-88
2023/01/11 14:17:46;;;;;;;;;;;12.90;99.90;;;;;;7338781;19;109106;-88
2023/01/11 14:20:19;;;;;;;;;;;12.90;99.90;;;;;;7340855;19;109709;-88
2023/01/11 14:22:46;;;;;;;;;;;12.90;99.90;;;;;;7339089;19;113149;-89
2023/01/11 14:25:26;;;;;;;;;;;13.00;99.90;;;;;;7339653;19;109804;-89
2023/01/11 14:28:11;;;;;;;;;;;12.90;99.90;;;;;;7339131;19;109473;-89
2023/01/11 14:30:57;;;;;;;;;;;12.90;99.90;;;;;;7338371;19;110323;-89
2023/01/11 14:33:33;;;;;;;;;;;12.80;99.90;;;;;;7340439;19;108788;-89
2023/01/11 14:36:16;;;;;;;;;;;12.80;99.90;;;;;;7341269;19;109897;-90
2023/01/11 14:39:01;;;;;;;;;;;12.70;99.90;;;;;;7346879;19;110145;-88
2023/01/11 14:41:31;;;;;;;;;;;12.70;99.90;;;;;;7339782;19;108817;-88
2023/01/11 14:44:14;;;;;;;;;;;12.60;99.90;;;;;;7341190;19;110290;-89
2023/01/11 14:47:02;;;;;;;;;;;12.50;99.90;;;;;;7341547;19;109119;-89
2023/01/11 14:49:54;;;;;;;;;;;12.40;99.90;;;;;;7340589;19;109772;-89
2023/01/11 14:52:25;;;;;;;;;;;12.40;99.90;;;;;;7340108;19;109477;-89
2023/01/11 14:55:17;;;;;;;;;;;12.30;99.90;;;;;;7343373;19;108864;-88
2023/01/11 14:57:51;;;;;;;;;;;12.30;99.90;;;;;;7349114;19;110798;-88
2023/01/11 15:00:17;;;;;;;;;;;12.20;99.90;;;;;;7345172;19;112279;-88